sensor_id;sensor_type;location;lat;lon;timestamp;P1;durP1;ratioP1;P2;durP2;ratioP2
73850;SDS011;62190;51.548;5.688;2023-04-01T00:00:52;8.08;;;1.60;;
73850;SDS011;62190;51.548;5.688;2023-04-01T00:03:20;8.58;;;1.52;;
73850;SDS011;62190;51.548;5.688;2023-04-01T00:05:47;3.55;;;1.40;;
73850;SDS011;62190;51.548;5.688;2023-04-01T00:08:18;6.10;;;1.22;;
73850;SDS011;62190;51.548;5.688;2023-04-01T00:10:47;5.10;;;1.45;;
73850;SDS011;62190;51.548;5.688;2023-04-01T00:13:14;5.15;;;1.30;;
73850;SDS011;62190;51.548;5.688;2023-04-01T00:15:42;4.50;;;1.45;;
73850;SDS011;62190;51.548;5.688;2023-04-01T00:18:12;8.20;;;2.02;;
73850;SDS011;62190;51.548;5.688;2023-04-01T00:20:42;6.78;;;1.30;;
73850;SDS011;62190;51.548;5.688;2023-04-01T00:23:12;3.55;;;1.20;;
73850;SDS011;62190;51.548;5.688;2023-04-01T00:25:40;4.50;;;1.22;;
73850;SDS011;62190;51.548;5.688;2023-04-01T00:28:08;5.17;;;1.98;;
73850;SDS011;62190;51.548;5.688;2023-04-01T00:30:36;5.67;;;1.25;;
73850;SDS011;62190;51.548;5.688;2023-04-01T00:33:05;7.70;;;1.55;;
73850;SDS011;62190;51.548;5.688;2023-04-01T00:35:33;6.30;;;1.47;;
73850;SDS011;62190;51.548;5.688;2023-04-01T00:38:02;3.12;;;1.30;;
73850;SDS011;62190;51.548;5.688;2023-04-01T00:40:38;5.20;;;1.40;;
73850;SDS011;62190;51.548;5.688;2023-04-01T00:43:03;4.40;;;1.30;;
73850;SDS011;62190;51.548;5.688;2023-04-01T00:45:34;6.75;;;1.60;;
73850;SDS011;62190;51.548;5.688;2023-04-01T00:48:18;9.30;;;2.12;;
73850;SDS011;62190;51.548;5.688;2023-04-01T00:50:50;6.30;;;2.17;;
73850;SDS011;62190;51.548;5.688;2023-04-01T00:53:16;6.75;;;1.20;;
73850;SDS011;62190;51.548;5.688;2023-04-01T00:55:47;5.58;;;1.30;;
73850;SDS011;62190;51.548;5.688;2023-04-01T00:58:18;7.17;;;1.20;;
73850;SDS011;62190;51.548;5.688;2023-04-01T01:00:48;2.92;;;1.12;;
73850;SDS011;62190;51.548;5.688;2023-04-01T01:03:17;2.87;;;1.00;;
73850;SDS011;62190;51.548;5.688;2023-04-01T01:05:54;1.70;;;0.88;;
73850;SDS011;62190;51.548;5.688;2023-04-01T01:11:05;5.03;;;1.30;;
73850;SDS011;62190;51.548;5.688;2023-04-01T01:13:36;3.30;;;1.17;;
73850;SDS011;62190;51.548;5.688;2023-04-01T01:16:07;2.85;;;1.25;;
73850;SDS011;62190;51.548;5.688;2023-04-01T01:27:12;4.12;;;1.75;;
73850;SDS011;62190;51.548;5.688;2023-04-01T01:29:44;5.33;;;1.75;;
73850;SDS011;62190;51.548;5.688;2023-04-01T01:32:35;7.33;;;2.15;;
73850;SDS011;62190;51.548;5.688;2023-04-01T01:35:15;3.37;;;1.60;;
73850;SDS011;62190;51.548;5.688;2023-04-01T01:37:50;3.65;;;1.82;;
73850;SDS011;62190;51.548;5.688;2023-04-01T01:40:19;4.90;;;1.50;;
73850;SDS011;62190;51.548;5.688;2023-04-01T01:42:48;3.12;;;1.70;;
73850;SDS011;62190;51.548;5.688;2023-04-01T01:45:18;4.47;;;1.70;;
73850;SDS011;62190;51.548;5.688;2023-04-01T01:47:46;3.58;;;1.77;;
73850;SDS011;62190;51.548;5.688;2023-04-01T01:50:15;4.42;;;1.57;;
73850;SDS011;62190;51.548;5.688;2023-04-01T01:52:44;5.83;;;1.90;;
73850;SDS011;62190;51.548;5.688;2023-04-01T01:58:01;4.85;;;1.98;;
73850;SDS011;62190;51.548;5.688;2023-04-01T02:00:33;3.92;;;2.20;;
73850;SDS011;62190;51.548;5.688;2023-04-01T02:03:03;5.67;;;2.60;;
73850;SDS011;62190;51.548;5.688;2023-04-01T02:05:30;6.62;;;2.83;;
73850;SDS011;62190;51.548;5.688;2023-04-01T02:08:03;5.58;;;3.47;;
73850;SDS011;62190;51.548;5.688;2023-04-01T02:10:35;5.67;;;2.80;;
73850;SDS011;62190;51.548;5.688;2023-04-01T02:13:07;4.67;;;3.00;;
73850;SDS011;62190;51.548;5.688;2023-04-01T02:15:37;8.90;;;4.28;;
73850;SDS011;62190;51.548;5.688;2023-04-01T02:18:08;6.37;;;4.40;;
73850;SDS011;62190;51.548;5.688;2023-04-01T02:20:39;7.10;;;4.72;;
73850;SDS011;62190;51.548;5.688;2023-04-01T02:23:09;7.53;;;4.80;;
73850;SDS011;62190;51.548;5.688;2023-04-01T02:25:38;7.55;;;4.78;;
73850;SDS011;62190;51.548;5.688;2023-04-01T02:28:07;7.35;;;5.28;;
73850;SDS011;62190;51.548;5.688;2023-04-01T02:30:36;7.42;;;4.80;;
73850;SDS011;62190;51.548;5.688;2023-04-01T02:33:06;9.25;;;5.47;;
73850;SDS011;62190;51.548;5.688;2023-04-01T02:35:35;8.98;;;5.28;;
73850;SDS011;62190;51.548;5.688;2023-04-01T02:38:02;8.10;;;5.78;;
73850;SDS011;62190;51.548;5.688;2023-04-01T02:40:42;8.88;;;6.03;;
73850;SDS011;62190;51.548;5.688;2023-04-01T02:43:11;10.13;;;5.97;;
73850;SDS011;62190;51.548;5.688;2023-04-01T02:45:38;9.83;;;5.83;;
73850;SDS011;62190;51.548;5.688;2023-04-01T02:48:06;13.78;;;6.47;;
73850;SDS011;62190;51.548;5.688;2023-04-01T02:50:33;13.78;;;7.72;;
73850;SDS011;62190;51.548;5.688;2023-04-01T02:53:01;10.98;;;7.10;;
73850;SDS011;62190;51.548;5.688;2023-04-01T02:55:31;11.90;;;7.03;;
73850;SDS011;62190;51.548;5.688;2023-04-01T02:57:59;11.68;;;6.40;;
73850;SDS011;62190;51.548;5.688;2023-04-01T03:00:28;15.03;;;7.35;;
73850;SDS011;62190;51.548;5.688;2023-04-01T03:02:55;14.83;;;8.68;;
73850;SDS011;62190;51.548;5.688;2023-04-01T03:05:23;12.93;;;7.25;;
73850;SDS011;62190;51.548;5.688;2023-04-01T03:07:50;17.65;;;8.50;;
73850;SDS011;62190;51.548;5.688;2023-04-01T03:10:18;16.62;;;8.48;;
73850;SDS011;62190;51.548;5.688;2023-04-01T03:12:45;16.60;;;8.78;;
73850;SDS011;62190;51.548;5.688;2023-04-01T03:15:14;19.00;;;9.75;;
73850;SDS011;62190;51.548;5.688;2023-04-01T03:17:42;18.82;;;10.08;;
73850;SDS011;62190;51.548;5.688;2023-04-01T03:20:12;17.12;;;9.38;;
73850;SDS011;62190;51.548;5.688;2023-04-01T03:22:41;22.35;;;10.50;;
73850;SDS011;62190;51.548;5.688;2023-04-01T03:25:08;18.73;;;10.00;;
73850;SDS011;62190;51.548;5.688;2023-04-01T03:27:37;15.80;;;9.20;;
73850;SDS011;62190;51.548;5.688;2023-04-01T03:30:06;16.82;;;8.53;;
73850;SDS011;62190;51.548;5.688;2023-04-01T03:32:33;17.25;;;8.40;;
73850;SDS011;62190;51.548;5.688;2023-04-01T03:35:00;16.40;;;8.10;;
73850;SDS011;62190;51.548;5.688;2023-04-01T03:37:28;15.15;;;8.23;;
73850;SDS011;62190;51.548;5.688;2023-04-01T03:39:55;14.05;;;7.20;;
73850;SDS011;62190;51.548;5.688;2023-04-01T03:42:22;15.10;;;7.28;;
73850;SDS011;62190;51.548;5.688;2023-04-01T03:44:52;13.15;;;6.90;;
73850;SDS011;62190;51.548;5.688;2023-04-01T03:47:19;11.65;;;6.65;;
73850;SDS011;62190;51.548;5.688;2023-04-01T03:49:46;12.13;;;7.00;;
73850;SDS011;62190;51.548;5.688;2023-04-01T03:52:13;12.95;;;7.00;;
73850;SDS011;62190;51.548;5.688;2023-04-01T03:54:41;14.43;;;7.60;;
73850;SDS011;62190;51.548;5.688;2023-04-01T03:57:08;12.70;;;6.35;;
73850;SDS011;62190;51.548;5.688;2023-04-01T03:59:35;13.40;;;6.62;;
73850;SDS011;62190;51.548;5.688;2023-04-01T04:02:05;13.90;;;7.28;;
73850;SDS011;62190;51.548;5.688;2023-04-01T04:04:31;12.47;;;6.53;;
73850;SDS011;62190;51.548;5.688;2023-04-01T04:06:59;13.53;;;7.17;;
73850;SDS011;62190;51.548;5.688;2023-04-01T04:09:26;12.85;;;6.97;;
73850;SDS011;62190;51.548;5.688;2023-04-01T04:11:55;13.38;;;6.62;;
73850;SDS011;62190;51.548;5.688;2023-04-01T04:14:23;11.05;;;5.70;;
73850;SDS011;62190;51.548;5.688;2023-04-01T04:16:50;12.43;;;6.33;;
73850;SDS011;62190;51.548;5.688;2023-04-01T04:19:18;13.38;;;6.25;;
73850;SDS011;62190;51.548;5.688;2023-04-01T04:21:45;11.38;;;5.58;;
73850;SDS011;62190;51.548;5.688;2023-04-01T04:24:14;11.53;;;6.10;;
73850;SDS011;62190;51.548;5.688;2023-04-01T04:26:43;10.95;;;6.03;;
73850;SDS011;62190;51.548;5.688;2023-04-01T04:29:10;10.55;;;6.40;;
73850;SDS011;62190;51.548;5.688;2023-04-01T04:31:39;10.13;;;5.78;;
73850;SDS011;62190;51.548;5.688;2023-04-01T04:34:08;11.40;;;5.90;;
73850;SDS011;62190;51.548;5.688;2023-04-01T04:36:36;10.55;;;5.72;;
73850;SDS011;62190;51.548;5.688;2023-04-01T04:39:05;9.98;;;5.40;;
73850;SDS011;62190;51.548;5.688;2023-04-01T04:41:36;8.63;;;4.83;;
73850;SDS011;62190;51.548;5.688;2023-04-01T04:44:05;10.82;;;5.55;;
73850;SDS011;62190;51.548;5.688;2023-04-01T04:46:33;12.15;;;5.97;;
73850;SDS011;62190;51.548;5.688;2023-04-01T04:49:01;11.28;;;5.45;;
73850;SDS011;62190;51.548;5.688;2023-04-01T04:51:29;9.33;;;5.37;;
73850;SDS011;62190;51.548;5.688;2023-04-01T04:54:00;10.40;;;5.35;;
73850;SDS011;62190;51.548;5.688;2023-04-01T04:56:26;8.23;;;4.78;;
73850;SDS011;62190;51.548;5.688;2023-04-01T04:58:58;6.67;;;4.05;;
73850;SDS011;62190;51.548;5.688;2023-04-01T05:01:29;9.30;;;4.42;;
73850;SDS011;62190;51.548;5.688;2023-04-01T05:04:00;8.58;;;4.17;;
73850;SDS011;62190;51.548;5.688;2023-04-01T05:06:28;7.60;;;4.65;;
73850;SDS011;62190;51.548;5.688;2023-04-01T05:08:57;6.33;;;3.95;;
73850;SDS011;62190;51.548;5.688;2023-04-01T05:11:26;5.85;;;3.42;;
73850;SDS011;62190;51.548;5.688;2023-04-01T05:13:54;7.95;;;4.22;;
73850;SDS011;62190;51.548;5.688;2023-04-01T05:16:21;7.10;;;3.75;;
73850;SDS011;62190;51.548;5.688;2023-04-01T05:18:49;8.28;;;4.08;;
73850;SDS011;62190;51.548;5.688;2023-04-01T05:21:16;6.70;;;3.83;;
73850;SDS011;62190;51.548;5.688;2023-04-01T05:23:46;6.67;;;3.75;;
73850;SDS011;62190;51.548;5.688;2023-04-01T05:26:14;7.67;;;3.87;;
73850;SDS011;62190;51.548;5.688;2023-04-01T05:28:41;6.90;;;3.90;;
73850;SDS011;62190;51.548;5.688;2023-04-01T05:31:09;6.20;;;3.40;;
73850;SDS011;62190;51.548;5.688;2023-04-01T05:33:36;8.98;;;4.75;;
73850;SDS011;62190;51.548;5.688;2023-04-01T05:36:08;9.13;;;4.62;;
73850;SDS011;62190;51.548;5.688;2023-04-01T05:38:37;7.97;;;4.67;;
73850;SDS011;62190;51.548;5.688;2023-04-01T05:41:04;6.83;;;3.90;;
73850;SDS011;62190;51.548;5.688;2023-04-01T05:43:32;9.28;;;5.20;;
73850;SDS011;62190;51.548;5.688;2023-04-01T05:46:01;8.83;;;4.60;;
73850;SDS011;62190;51.548;5.688;2023-04-01T05:48:28;7.95;;;4.17;;
73850;SDS011;62190;51.548;5.688;2023-04-01T05:50:55;8.23;;;4.65;;
73850;SDS011;62190;51.548;5.688;2023-04-01T05:53:22;7.95;;;4.50;;
73850;SDS011;62190;51.548;5.688;2023-04-01T05:55:50;7.20;;;4.28;;
73850;SDS011;62190;51.548;5.688;2023-04-01T05:58:17;7.70;;;4.50;;
73850;SDS011;62190;51.548;5.688;2023-04-01T06:00:45;8.63;;;5.45;;
73850;SDS011;62190;51.548;5.688;2023-04-01T06:03:12;8.85;;;4.42;;
73850;SDS011;62190;51.548;5.688;2023-04-01T06:05:41;9.13;;;5.05;;
73850;SDS011;62190;51.548;5.688;2023-04-01T06:08:10;9.13;;;5.40;;
73850;SDS011;62190;51.548;5.688;2023-04-01T06:13:58;11.80;;;5.28;;
73850;SDS011;62190;51.548;5.688;2023-04-01T06:16:44;9.88;;;5.78;;
73850;SDS011;62190;51.548;5.688;2023-04-01T06:27:51;16.65;;;8.83;;
73850;SDS011;62190;51.548;5.688;2023-04-01T06:30:33;17.10;;;8.43;;
73850;SDS011;62190;51.548;5.688;2023-04-01T06:33:06;15.23;;;7.70;;
73850;SDS011;62190;51.548;5.688;2023-04-01T06:46:41;15.30;;;7.62;;
73850;SDS011;62190;51.548;5.688;2023-04-01T06:54:29;13.48;;;6.85;;
73850;SDS011;62190;51.548;5.688;2023-04-01T06:57:30;13.05;;;6.90;;
73850;SDS011;62190;51.548;5.688;2023-04-01T07:00:00;14.58;;;7.80;;
73850;SDS011;62190;51.548;5.688;2023-04-01T07:02:38;18.48;;;8.68;;
73850;SDS011;62190;51.548;5.688;2023-04-01T07:05:03;13.75;;;7.53;;
73850;SDS011;62190;51.548;5.688;2023-04-01T07:10:09;14.80;;;8.50;;
73850;SDS011;62190;51.548;5.688;2023-04-01T07:15:04;15.58;;;7.90;;
73850;SDS011;62190;51.548;5.688;2023-04-01T07:17:48;19.05;;;9.68;;
73850;SDS011;62190;51.548;5.688;2023-04-01T07:20:22;17.92;;;9.75;;
73850;SDS011;62190;51.548;5.688;2023-04-01T07:22:52;16.60;;;9.35;;
73850;SDS011;62190;51.548;5.688;2023-04-01T07:25:31;19.92;;;10.43;;
73850;SDS011;62190;51.548;5.688;2023-04-01T07:28:02;19.02;;;10.58;;
73850;SDS011;62190;51.548;5.688;2023-04-01T07:30:33;22.02;;;11.85;;
73850;SDS011;62190;51.548;5.688;2023-04-01T07:33:08;24.72;;;12.18;;
73850;SDS011;62190;51.548;5.688;2023-04-01T07:35:38;24.05;;;12.53;;
73850;SDS011;62190;51.548;5.688;2023-04-01T07:41:13;24.47;;;12.47;;
73850;SDS011;62190;51.548;5.688;2023-04-01T07:44:09;23.40;;;13.70;;
73850;SDS011;62190;51.548;5.688;2023-04-01T07:46:47;23.65;;;12.00;;
73850;SDS011;62190;51.548;5.688;2023-04-01T07:49:30;23.22;;;11.63;;
73850;SDS011;62190;51.548;5.688;2023-04-01T07:52:06;23.65;;;12.23;;
73850;SDS011;62190;51.548;5.688;2023-04-01T07:54:55;24.27;;;12.15;;
73850;SDS011;62190;51.548;5.688;2023-04-01T08:05:36;21.02;;;10.75;;
73850;SDS011;62190;51.548;5.688;2023-04-01T08:08:11;19.92;;;11.10;;
73850;SDS011;62190;51.548;5.688;2023-04-01T08:13:34;18.77;;;9.43;;
73850;SDS011;62190;51.548;5.688;2023-04-01T08:16:10;19.90;;;9.00;;
73850;SDS011;62190;51.548;5.688;2023-04-01T08:21:25;19.92;;;12.10;;
73850;SDS011;62190;51.548;5.688;2023-04-01T08:23:57;20.27;;;12.50;;
73850;SDS011;62190;51.548;5.688;2023-04-01T08:29:10;22.90;;;12.80;;
73850;SDS011;62190;51.548;5.688;2023-04-01T08:31:48;21.65;;;12.55;;
73850;SDS011;62190;51.548;5.688;2023-04-01T08:34:31;20.43;;;11.90;;
73850;SDS011;62190;51.548;5.688;2023-04-01T08:37:00;22.90;;;13.83;;
73850;SDS011;62190;51.548;5.688;2023-04-01T08:39:46;26.00;;;12.25;;
73850;SDS011;62190;51.548;5.688;2023-04-01T08:42:40;25.55;;;13.15;;
73850;SDS011;62190;51.548;5.688;2023-04-01T08:45:20;22.00;;;12.60;;
73850;SDS011;62190;51.548;5.688;2023-04-01T08:53:13;17.65;;;10.88;;
73850;SDS011;62190;51.548;5.688;2023-04-01T09:18:15;26.73;;;13.58;;
73850;SDS011;62190;51.548;5.688;2023-04-01T09:28:56;19.77;;;10.78;;
73850;SDS011;62190;51.548;5.688;2023-04-01T09:40:18;20.15;;;11.90;;
73850;SDS011;62190;51.548;5.688;2023-04-01T09:48:51;18.87;;;12.20;;
73850;SDS011;62190;51.548;5.688;2023-04-01T09:59:21;16.05;;;9.68;;
73850;SDS011;62190;51.548;5.688;2023-04-01T10:01:53;15.95;;;11.08;;
73850;SDS011;62190;51.548;5.688;2023-04-01T10:10:22;16.50;;;9.33;;
73850;SDS011;62190;51.548;5.688;2023-04-01T10:15:44;12.82;;;9.25;;
73850;SDS011;62190;51.548;5.688;2023-04-01T10:26:40;12.55;;;9.20;;
73850;SDS011;62190;51.548;5.688;2023-04-01T10:40:57;12.68;;;9.78;;
73850;SDS011;62190;51.548;5.688;2023-04-01T10:43:31;12.07;;;9.40;;
73850;SDS011;62190;51.548;5.688;2023-04-01T10:46:15;11.08;;;9.30;;
73850;SDS011;62190;51.548;5.688;2023-04-01T10:48:55;12.30;;;9.28;;
73850;SDS011;62190;51.548;5.688;2023-04-01T10:57:36;12.18;;;9.68;;
73850;SDS011;62190;51.548;5.688;2023-04-01T11:00:18;13.05;;;10.65;;
73850;SDS011;62190;51.548;5.688;2023-04-01T11:03:19;14.07;;;11.50;;
73850;SDS011;62190;51.548;5.688;2023-04-01T11:25:23;16.57;;;11.57;;
73850;SDS011;62190;51.548;5.688;2023-04-01T11:30:58;15.95;;;11.00;;
73850;SDS011;62190;51.548;5.688;2023-04-01T11:44:38;18.80;;;13.43;;
73850;SDS011;62190;51.548;5.688;2023-04-01T11:47:24;18.92;;;13.70;;
73850;SDS011;62190;51.548;5.688;2023-04-01T11:50:15;21.65;;;14.83;;
73850;SDS011;62190;51.548;5.688;2023-04-01T11:55:32;22.00;;;14.85;;
73850;SDS011;62190;51.548;5.688;2023-04-01T12:09:07;18.85;;;13.35;;
73850;SDS011;62190;51.548;5.688;2023-04-01T12:14:31;18.67;;;13.68;;
73850;SDS011;62190;51.548;5.688;2023-04-01T12:17:17;19.00;;;14.75;;
73850;SDS011;62190;51.548;5.688;2023-04-01T12:19:47;18.15;;;14.05;;
73850;SDS011;62190;51.548;5.688;2023-04-01T12:22:23;16.82;;;12.33;;
73850;SDS011;62190;51.548;5.688;2023-04-01T12:27:47;17.87;;;12.25;;
73850;SDS011;62190;51.548;5.688;2023-04-01T12:41:08;14.15;;;9.68;;
73850;SDS011;62190;51.548;5.688;2023-04-01T12:44:09;12.63;;;9.20;;
73850;SDS011;62190;51.548;5.688;2023-04-01T12:52:18;12.82;;;9.70;;
73850;SDS011;62190;51.548;5.688;2023-04-01T13:06:00;16.23;;;9.23;;
73850;SDS011;62190;51.548;5.688;2023-04-01T13:11:52;12.93;;;9.48;;
73850;SDS011;62190;51.548;5.688;2023-04-01T13:19:52;18.82;;;12.93;;
73850;SDS011;62190;51.548;5.688;2023-04-01T13:22:35;14.05;;;10.18;;
73850;SDS011;62190;51.548;5.688;2023-04-01T13:25:04;17.35;;;11.97;;
73850;SDS011;62190;51.548;5.688;2023-04-01T13:27:40;18.45;;;12.95;;
73850;SDS011;62190;51.548;5.688;2023-04-01T13:30:55;17.07;;;12.15;;
73850;SDS011;62190;51.548;5.688;2023-04-01T13:43:23;15.08;;;10.48;;
73850;SDS011;62190;51.548;5.688;2023-04-01T13:54:09;18.35;;;11.57;;
73850;SDS011;62190;51.548;5.688;2023-04-01T13:59:49;15.63;;;11.57;;
73850;SDS011;62190;51.548;5.688;2023-04-01T14:02:31;12.43;;;10.23;;
73850;SDS011;62190;51.548;5.688;2023-04-01T14:08:14;11.93;;;8.98;;
73850;SDS011;62190;51.548;5.688;2023-04-01T14:10:58;14.47;;;10.25;;
73850;SDS011;62190;51.548;5.688;2023-04-01T14:32:57;17.77;;;11.50;;
73850;SDS011;62190;51.548;5.688;2023-04-01T14:36:31;18.52;;;11.75;;
73850;SDS011;62190;51.548;5.688;2023-04-01T14:41:06;16.67;;;12.47;;
73850;SDS011;62190;51.548;5.688;2023-04-01T14:43:52;20.65;;;12.23;;
73850;SDS011;62190;51.548;5.688;2023-04-01T14:46:28;17.55;;;10.30;;
73850;SDS011;62190;51.548;5.688;2023-04-01T14:49:05;16.65;;;11.35;;
73850;SDS011;62190;51.548;5.688;2023-04-01T14:51:49;14.95;;;11.12;;
73850;SDS011;62190;51.548;5.688;2023-04-01T14:54:29;16.85;;;11.33;;
73850;SDS011;62190;51.548;5.688;2023-04-01T14:56:49;17.45;;;12.15;;
73850;SDS011;62190;51.548;5.688;2023-04-01T15:01:59;12.68;;;8.63;;
73850;SDS011;62190;51.548;5.688;2023-04-01T15:04:40;11.43;;;8.53;;
73850;SDS011;62190;51.548;5.688;2023-04-01T15:10:41;16.70;;;10.88;;
73850;SDS011;62190;51.548;5.688;2023-04-01T15:29:37;18.10;;;12.45;;
73850;SDS011;62190;51.548;5.688;2023-04-01T15:49:06;18.27;;;11.97;;
73850;SDS011;62190;51.548;5.688;2023-04-01T15:52:02;20.30;;;12.40;;
73850;SDS011;62190;51.548;5.688;2023-04-01T15:59:55;16.17;;;11.05;;
73850;SDS011;62190;51.548;5.688;2023-04-01T16:13:25;16.42;;;10.40;;
73850;SDS011;62190;51.548;5.688;2023-04-01T16:16:16;20.97;;;11.88;;
73850;SDS011;62190;51.548;5.688;2023-04-01T16:22:00;15.63;;;10.78;;
73850;SDS011;62190;51.548;5.688;2023-04-01T16:24:43;15.08;;;9.35;;
73850;SDS011;62190;51.548;5.688;2023-04-01T16:30:26;16.05;;;10.38;;
73850;SDS011;62190;51.548;5.688;2023-04-01T16:33:02;15.68;;;9.65;;
73850;SDS011;62190;51.548;5.688;2023-04-01T16:35:44;14.53;;;9.08;;
73850;SDS011;62190;51.548;5.688;2023-04-01T16:38:21;16.10;;;10.08;;
73850;SDS011;62190;51.548;5.688;2023-04-01T16:43:41;17.30;;;11.00;;
73850;SDS011;62190;51.548;5.688;2023-04-01T16:54:53;21.00;;;12.13;;
73850;SDS011;62190;51.548;5.688;2023-04-01T16:57:26;17.60;;;12.43;;
73850;SDS011;62190;51.548;5.688;2023-04-01T17:11:19;18.62;;;11.08;;
73850;SDS011;62190;51.548;5.688;2023-04-01T17:16:48;16.50;;;11.68;;
73850;SDS011;62190;51.548;5.688;2023-04-01T17:19:33;14.73;;;9.65;;
73850;SDS011;62190;51.548;5.688;2023-04-01T17:27:57;17.10;;;10.30;;
73850;SDS011;62190;51.548;5.688;2023-04-01T17:30:26;17.07;;;9.95;;
73850;SDS011;62190;51.548;5.688;2023-04-01T17:33:03;16.07;;;9.75;;
73850;SDS011;62190;51.548;5.688;2023-04-01T17:38:29;17.50;;;10.93;;
73850;SDS011;62190;51.548;5.688;2023-04-01T17:41:15;14.58;;;8.93;;
73850;SDS011;62190;51.548;5.688;2023-04-01T17:52:40;10.65;;;6.97;;
73850;SDS011;62190;51.548;5.688;2023-04-01T18:01:12;10.60;;;6.97;;
73850;SDS011;62190;51.548;5.688;2023-04-01T18:08:57;9.60;;;5.90;;
73850;SDS011;62190;51.548;5.688;2023-04-01T18:20:16;9.03;;;6.72;;
73850;SDS011;62190;51.548;5.688;2023-04-01T18:22:58;11.95;;;7.65;;
73850;SDS011;62190;51.548;5.688;2023-04-01T18:25:37;9.03;;;5.25;;
73850;SDS011;62190;51.548;5.688;2023-04-01T18:33:44;7.33;;;4.50;;
73850;SDS011;62190;51.548;5.688;2023-04-01T18:36:21;9.18;;;5.58;;
73850;SDS011;62190;51.548;5.688;2023-04-01T18:38:56;9.48;;;5.95;;
73850;SDS011;62190;51.548;5.688;2023-04-01T18:41:28;7.62;;;5.60;;
73850;SDS011;62190;51.548;5.688;2023-04-01T18:44:16;10.50;;;6.83;;
73850;SDS011;62190;51.548;5.688;2023-04-01T18:52:34;9.68;;;5.80;;
73850;SDS011;62190;51.548;5.688;2023-04-01T18:58:05;9.73;;;6.15;;
73850;SDS011;62190;51.548;5.688;2023-04-01T19:00:18;10.38;;;6.22;;
73850;SDS011;62190;51.548;5.688;2023-04-01T19:02:53;10.40;;;6.25;;
73850;SDS011;62190;51.548;5.688;2023-04-01T19:08:14;11.12;;;6.47;;
73850;SDS011;62190;51.548;5.688;2023-04-01T19:19:24;14.33;;;7.53;;
73850;SDS011;62190;51.548;5.688;2023-04-01T19:22:02;13.70;;;8.78;;
73850;SDS011;62190;51.548;5.688;2023-04-01T19:24:45;11.38;;;7.65;;
73850;SDS011;62190;51.548;5.688;2023-04-01T19:27:33;13.08;;;8.18;;
73850;SDS011;62190;51.548;5.688;2023-04-01T19:30:07;12.63;;;8.10;;
73850;SDS011;62190;51.548;5.688;2023-04-01T19:32:55;14.90;;;8.58;;
73850;SDS011;62190;51.548;5.688;2023-04-01T19:37:51;15.68;;;9.73;;
73850;SDS011;62190;51.548;5.688;2023-04-01T19:43:07;15.00;;;9.48;;
73850;SDS011;62190;51.548;5.688;2023-04-01T19:45:41;12.80;;;7.83;;
73850;SDS011;62190;51.548;5.688;2023-04-01T19:48:41;15.40;;;9.75;;
73850;SDS011;62190;51.548;5.688;2023-04-01T19:51:12;13.58;;;9.05;;
73850;SDS011;62190;51.548;5.688;2023-04-01T19:56:49;15.38;;;10.03;;
73850;SDS011;62190;51.548;5.688;2023-04-01T19:59:23;15.93;;;9.75;;
73850;SDS011;62190;51.548;5.688;2023-04-01T20:01:52;15.68;;;10.03;;
73850;SDS011;62190;51.548;5.688;2023-04-01T20:07:34;16.60;;;9.35;;
73850;SDS011;62190;51.548;5.688;2023-04-01T20:10:16;15.08;;;8.93;;
73850;SDS011;62190;51.548;5.688;2023-04-01T20:18:19;15.23;;;9.58;;
73850;SDS011;62190;51.548;5.688;2023-04-01T20:20:55;15.25;;;8.73;;
73850;SDS011;62190;51.548;5.688;2023-04-01T20:23:38;15.05;;;9.05;;
73850;SDS011;62190;51.548;5.688;2023-04-01T20:26:08;16.10;;;9.58;;
73850;SDS011;62190;51.548;5.688;2023-04-01T20:29:04;16.25;;;9.83;;
73850;SDS011;62190;51.548;5.688;2023-04-01T20:32:06;16.20;;;10.43;;
73850;SDS011;62190;51.548;5.688;2023-04-01T20:45:57;17.15;;;10.95;;
73850;SDS011;62190;51.548;5.688;2023-04-01T20:51:31;16.55;;;9.88;;
73850;SDS011;62190;51.548;5.688;2023-04-01T20:54:23;15.30;;;11.15;;
73850;SDS011;62190;51.548;5.688;2023-04-01T20:56:55;14.68;;;9.48;;
73850;SDS011;62190;51.548;5.688;2023-04-01T20:59:41;13.72;;;8.93;;
73850;SDS011;62190;51.548;5.688;2023-04-01T21:02:30;14.50;;;9.38;;
73850;SDS011;62190;51.548;5.688;2023-04-01T21:10:57;15.95;;;10.15;;
73850;SDS011;62190;51.548;5.688;2023-04-01T21:13:44;15.25;;;9.35;;
73850;SDS011;62190;51.548;5.688;2023-04-01T21:19:25;16.82;;;10.85;;
73850;SDS011;62190;51.548;5.688;2023-04-01T21:36:36;16.60;;;11.28;;
73850;SDS011;62190;51.548;5.688;2023-04-01T21:47:49;19.10;;;10.95;;
73850;SDS011;62190;51.548;5.688;2023-04-01T21:50:27;19.00;;;12.23;;
73850;SDS011;62190;51.548;5.688;2023-04-01T22:01:43;20.08;;;13.32;;
73850;SDS011;62190;51.548;5.688;2023-04-01T22:07:14;17.27;;;11.73;;
73850;SDS011;62190;51.548;5.688;2023-04-01T22:09:51;19.25;;;11.53;;
73850;SDS011;62190;51.548;5.688;2023-04-01T22:20:50;18.07;;;11.75;;
73850;SDS011;62190;51.548;5.688;2023-04-01T22:23:26;16.87;;;12.65;;
73850;SDS011;62190;51.548;5.688;2023-04-01T22:26:04;18.10;;;11.57;;
73850;SDS011;62190;51.548;5.688;2023-04-01T22:28:51;17.37;;;10.58;;
73850;SDS011;62190;51.548;5.688;2023-04-01T22:31:25;18.95;;;11.57;;
73850;SDS011;62190;51.548;5.688;2023-04-01T22:34:00;16.12;;;10.38;;
73850;SDS011;62190;51.548;5.688;2023-04-01T22:36:35;14.63;;;9.40;;
73850;SDS011;62190;51.548;5.688;2023-04-01T22:44:06;18.35;;;9.75;;
73850;SDS011;62190;51.548;5.688;2023-04-01T22:54:56;14.75;;;9.20;;
73850;SDS011;62190;51.548;5.688;2023-04-01T23:05:41;15.55;;;9.83;;
73850;SDS011;62190;51.548;5.688;2023-04-01T23:11:05;16.50;;;10.48;;
73850;SDS011;62190;51.548;5.688;2023-04-01T23:13:45;18.35;;;12.37;;
73850;SDS011;62190;51.548;5.688;2023-04-01T23:16:15;19.15;;;12.47;;
73850;SDS011;62190;51.548;5.688;2023-04-01T23:19:01;20.12;;;12.63;;
73850;SDS011;62190;51.548;5.688;2023-04-01T23:21:45;19.10;;;11.70;;
73850;SDS011;62190;51.548;5.688;2023-04-01T23:27:05;20.35;;;12.73;;
73850;SDS011;62190;51.548;5.688;2023-04-01T23:29:41;23.32;;;15.30;;
73850;SDS011;62190;51.548;5.688;2023-04-01T23:32:15;22.35;;;13.98;;
73850;SDS011;62190;51.548;5.688;2023-04-01T23:34:49;21.37;;;13.05;;
73850;SDS011;62190;51.548;5.688;2023-04-01T23:37:20;20.92;;;13.00;;
73850;SDS011;62190;51.548;5.688;2023-04-01T23:39:49;23.57;;;13.58;;
73850;SDS011;62190;51.548;5.688;2023-04-01T23:42:33;22.32;;;14.50;;
73850;SDS011;62190;51.548;5.688;2023-04-01T23:45:11;19.75;;;12.80;;
73850;SDS011;62190;51.548;5.688;2023-04-01T23:47:34;20.97;;;11.83;;
73850;SDS011;62190;51.548;5.688;2023-04-01T23:50:12;17.73;;;11.33;;
73850;SDS011;62190;51.548;5.688;2023-04-01T23:52:49;17.25;;;11.22;;
73850;SDS011;62190;51.548;5.688;2023-04-01T23:55:30;14.85;;;9.75;;
